sensor_id;sensor_type;location;lat;lon;timestamp;temperature;humidity
30300;DHT22;17110;52.602;12.998;2024-01-06T00:02:22;1.40;99.90
30300;DHT22;17110;52.602;12.998;2024-01-06T00:07:23;1.40;99.90
30300;DHT22;17110;52.602;12.998;2024-01-06T00:12:23;1.40;99.90
30300;DHT22;17110;52.602;12.998;2024-01-06T00:17:25;1.50;99.90
30300;DHT22;17110;52.602;12.998;2024-01-06T00:22:26;1.40;99.90
30300;DHT22;17110;52.602;12.998;2024-01-06T00:27:26;1.50;99.90
30300;DHT22;17110;52.602;12.998;2024-01-06T00:32:28;1.50;99.90
30300;DHT22;17110;52.602;12.998;2024-01-06T00:37:29;1.50;99.90
30300;DHT22;17110;52.602;12.998;2024-01-06T00:42:30;1.40;99.90
30300;DHT22;17110;52.602;12.998;2024-01-06T00:47:31;1.40;99.90
30300;DHT22;17110;52.602;12.998;2024-01-06T00:52:32;1.50;99.90
30300;DHT22;17110;52.602;12.998;2024-01-06T00:57:33;1.50;99.90
30300;DHT22;17110;52.602;12.998;2024-01-06T01:02:35;1.50;99.90
30300;DHT22;17110;52.602;12.998;2024-01-06T01:07:35;1.40;99.90
30300;DHT22;17110;52.602;12.998;2024-01-06T01:12:36;1.40;99.90
30300;DHT22;17110;52.602;12.998;2024-01-06T01:17:38;1.40;99.90
30300;DHT22;17110;52.602;12.998;2024-01-06T01:22:39;1.40;99.90
30300;DHT22;17110;52.602;12.998;2024-01-06T01:27:40;1.30;99.90
30300;DHT22;17110;52.602;12.998;2024-01-06T01:32:41;1.30;99.90
30300;DHT22;17110;52.602;12.998;2024-01-06T01:37:42;1.30;99.90
30300;DHT22;17110;52.602;12.998;2024-01-06T01:42:43;1.20;99.90
30300;DHT22;17110;52.602;12.998;2024-01-06T01:47:45;1.20;99.90
30300;DHT22;17110;52.602;12.998;2024-01-06T01:52:46;1.20;99.90
30300;DHT22;17110;52.602;12.998;2024-01-06T01:57:47;1.20;99.90
30300;DHT22;17110;52.602;12.998;2024-01-06T02:02:49;1.20;99.90
30300;DHT22;17110;52.602;12.998;2024-01-06T02:07:50;1.30;99.90
30300;DHT22;17110;52.602;12.998;2024-01-06T02:12:50;1.30;99.90
30300;DHT22;17110;52.602;12.998;2024-01-06T02:17:52;1.30;99.90
30300;DHT22;17110;52.602;12.998;2024-01-06T02:22:54;1.30;99.90
30300;DHT22;17110;52.602;12.998;2024-01-06T02:27:55;1.30;99.90
30300;DHT22;17110;52.602;12.998;2024-01-06T02:32:55;1.30;99.90
30300;DHT22;17110;52.602;12.998;2024-01-06T02:37:57;1.30;99.90
30300;DHT22;17110;52.602;12.998;2024-01-06T02:42:58;1.30;99.90
30300;DHT22;17110;52.602;12.998;2024-01-06T02:47:59;1.20;99.90
30300;DHT22;17110;52.602;12.998;2024-01-06T02:53:01;1.20;99.90
30300;DHT22;17110;52.602;12.998;2024-01-06T02:58:01;1.20;99.90
30300;DHT22;17110;52.602;12.998;2024-01-06T03:03:02;1.20;99.90
30300;DHT22;17110;52.602;12.998;2024-01-06T03:08:05;1.20;99.90
30300;DHT22;17110;52.602;12.998;2024-01-06T03:13:06;1.20;99.90
30300;DHT22;17110;52.602;12.998;2024-01-06T03:18:06;1.20;99.90
30300;DHT22;17110;52.602;12.998;2024-01-06T03:23:08;1.10;99.90
30300;DHT22;17110;52.602;12.998;2024-01-06T03:28:09;1.20;99.90
30300;DHT22;17110;52.602;12.998;2024-01-06T03:33:09;1.10;99.90
30300;DHT22;17110;52.602;12.998;2024-01-06T03:38:11;1.30;99.90
30300;DHT22;17110;52.602;12.998;2024-01-06T03:43:12;1.20;99.90
30300;DHT22;17110;52.602;12.998;2024-01-06T03:48:13;1.20;99.90
30300;DHT22;17110;52.602;12.998;2024-01-06T03:53:15;1.20;99.90
30300;DHT22;17110;52.602;12.998;2024-01-06T03:58:15;1.20;99.90
30300;DHT22;17110;52.602;12.998;2024-01-06T04:03:16;1.20;99.90
30300;DHT22;17110;52.602;12.998;2024-01-06T04:08:18;1.20;99.90
30300;DHT22;17110;52.602;12.998;2024-01-06T04:13:19;1.20;99.90
30300;DHT22;17110;52.602;12.998;2024-01-06T04:18:20;1.20;99.90
30300;DHT22;17110;52.602;12.998;2024-01-06T04:23:22;1.10;99.90
30300;DHT22;17110;52.602;12.998;2024-01-06T04:28:22;1.20;99.90
30300;DHT22;17110;52.602;12.998;2024-01-06T04:33:23;1.10;99.90
30300;DHT22;17110;52.602;12.998;2024-01-06T04:38:25;1.20;99.90
30300;DHT22;17110;52.602;12.998;2024-01-06T04:43:25;1.20;99.90
30300;DHT22;17110;52.602;12.998;2024-01-06T04:48:26;1.20;99.90
30300;DHT22;17110;52.602;12.998;2024-01-06T04:53:28;1.20;99.90
30300;DHT22;17110;52.602;12.998;2024-01-06T04:58:29;1.10;99.90
30300;DHT22;17110;52.602;12.998;2024-01-06T05:03:29;1.20;99.90
30300;DHT22;17110;52.602;12.998;2024-01-06T05:08:31;1.10;99.90
30300;DHT22;17110;52.602;12.998;2024-01-06T05:13:32;1.10;99.90
30300;DHT22;17110;52.602;12.998;2024-01-06T05:18:32;1.10;99.90
30300;DHT22;17110;52.602;12.998;2024-01-06T05:23:34;1.10;99.90
30300;DHT22;17110;52.602;12.998;2024-01-06T05:28:35;1.00;99.90
30300;DHT22;17110;52.602;12.998;2024-01-06T05:33:36;1.00;99.90
30300;DHT22;17110;52.602;12.998;2024-01-06T05:38:38;1.00;99.90
30300;DHT22;17110;52.602;12.998;2024-01-06T05:43:38;1.00;99.90
30300;DHT22;17110;52.602;12.998;2024-01-06T05:48:39;1.00;99.90
30300;DHT22;17110;52.602;12.998;2024-01-06T05:53:41;1.00;99.90
30300;DHT22;17110;52.602;12.998;2024-01-06T05:58:41;1.10;99.90
30300;DHT22;17110;52.602;12.998;2024-01-06T06:03:42;1.00;99.90
30300;DHT22;17110;52.602;12.998;2024-01-06T06:08:44;1.00;99.90
30300;DHT22;17110;52.602;12.998;2024-01-06T06:13:45;1.00;99.90
30300;DHT22;17110;52.602;12.998;2024-01-06T06:18:45;1.00;99.90
30300;DHT22;17110;52.602;12.998;2024-01-06T06:23:47;0.90;99.90
30300;DHT22;17110;52.602;12.998;2024-01-06T06:28:48;1.00;99.90
30300;DHT22;17110;52.602;12.998;2024-01-06T06:33:48;1.00;99.90
30300;DHT22;17110;52.602;12.998;2024-01-06T06:38:50;0.90;99.90
30300;DHT22;17110;52.602;12.998;2024-01-06T06:43:51;0.80;99.90
30300;DHT22;17110;52.602;12.998;2024-01-06T06:48:52;0.80;99.90
30300;DHT22;17110;52.602;12.998;2024-01-06T06:53:54;0.80;99.90
30300;DHT22;17110;52.602;12.998;2024-01-06T06:58:54;0.90;99.90
30300;DHT22;17110;52.602;12.998;2024-01-06T07:03:55;0.80;99.90
30300;DHT22;17110;52.602;12.998;2024-01-06T07:08:57;0.70;99.90
30300;DHT22;17110;52.602;12.998;2024-01-06T07:13:57;0.70;99.90
30300;DHT22;17110;52.602;12.998;2024-01-06T07:18:58;0.80;99.90
30300;DHT22;17110;52.602;12.998;2024-01-06T07:24:00;0.80;99.90
30300;DHT22;17110;52.602;12.998;2024-01-06T07:29:01;0.80;99.90
30300;DHT22;17110;52.602;12.998;2024-01-06T07:34:01;0.60;99.90
30300;DHT22;17110;52.602;12.998;2024-01-06T07:39:03;0.60;99.90
30300;DHT22;17110;52.602;12.998;2024-01-06T07:44:04;0.70;99.90
30300;DHT22;17110;52.602;12.998;2024-01-06T07:49:05;0.70;99.90
30300;DHT22;17110;52.602;12.998;2024-01-06T07:54:06;0.70;99.90
30300;DHT22;17110;52.602;12.998;2024-01-06T07:59:07;0.70;99.90
30300;DHT22;17110;52.602;12.998;2024-01-06T08:04:08;0.60;99.90
30300;DHT22;17110;52.602;12.998;2024-01-06T08:09:10;0.60;99.90
30300;DHT22;17110;52.602;12.998;2024-01-06T08:14:10;0.60;99.90
30300;DHT22;17110;52.602;12.998;2024-01-06T08:19:11;0.60;99.90
30300;DHT22;17110;52.602;12.998;2024-01-06T08:24:13;0.60;99.90
30300;DHT22;17110;52.602;12.998;2024-01-06T08:29:14;0.60;99.90
30300;DHT22;17110;52.602;12.998;2024-01-06T08:34:14;0.60;99.90
30300;DHT22;17110;52.602;12.998;2024-01-06T08:39:16;0.50;99.90
30300;DHT22;17110;52.602;12.998;2024-01-06T08:44:17;0.60;99.90
30300;DHT22;17110;52.602;12.998;2024-01-06T08:49:18;0.50;99.90
30300;DHT22;17110;52.602;12.998;2024-01-06T08:54:20;0.50;99.90
30300;DHT22;17110;52.602;12.998;2024-01-06T08:59:20;0.40;99.90
30300;DHT22;17110;52.602;12.998;2024-01-06T09:04:21;0.50;99.90
30300;DHT22;17110;52.602;12.998;2024-01-06T09:09:23;0.40;99.90
30300;DHT22;17110;52.602;12.998;2024-01-06T09:14:24;0.40;99.90
30300;DHT22;17110;52.602;12.998;2024-01-06T09:19:24;0.50;99.90
30300;DHT22;17110;52.602;12.998;2024-01-06T09:24:26;0.40;99.90
30300;DHT22;17110;52.602;12.998;2024-01-06T09:29:27;0.40;99.90
30300;DHT22;17110;52.602;12.998;2024-01-06T09:34:28;0.40;99.90
30300;DHT22;17110;52.602;12.998;2024-01-06T09:39:30;0.50;99.90
30300;DHT22;17110;52.602;12.998;2024-01-06T09:44:30;0.50;99.90
30300;DHT22;17110;52.602;12.998;2024-01-06T09:49:32;0.50;99.90
30300;DHT22;17110;52.602;12.998;2024-01-06T09:54:37;0.50;99.90
30300;DHT22;17110;52.602;12.998;2024-01-06T09:59:38;0.50;99.90
30300;DHT22;17110;52.602;12.998;2024-01-06T10:04:39;0.40;99.90
30300;DHT22;17110;52.602;12.998;2024-01-06T10:09:42;0.40;99.90
30300;DHT22;17110;52.602;12.998;2024-01-06T10:14:44;0.40;99.90
30300;DHT22;17110;52.602;12.998;2024-01-06T10:19:45;0.40;99.90
30300;DHT22;17110;52.602;12.998;2024-01-06T10:24:47;0.40;99.90
30300;DHT22;17110;52.602;12.998;2024-01-06T10:29:47;0.40;99.90
30300;DHT22;17110;52.602;12.998;2024-01-06T10:34:48;0.40;99.90
30300;DHT22;17110;52.602;12.998;2024-01-06T10:40:06;0.50;99.90
30300;DHT22;17110;52.602;12.998;2024-01-06T10:45:08;0.60;99.90
30300;DHT22;17110;52.602;12.998;2024-01-06T10:50:09;0.50;99.90
30300;DHT22;17110;52.602;12.998;2024-01-06T10:55:11;0.40;99.90
30300;DHT22;17110;52.602;12.998;2024-01-06T11:00:13;0.40;99.90
30300;DHT22;17110;52.602;12.998;2024-01-06T11:05:14;0.40;99.90
30300;DHT22;17110;52.602;12.998;2024-01-06T11:10:17;0.40;99.90
30300;DHT22;17110;52.602;12.998;2024-01-06T11:15:39;0.40;99.90
30300;DHT22;17110;52.602;12.998;2024-01-06T11:21:14;0.50;99.90
30300;DHT22;17110;52.602;12.998;2024-01-06T11:26:16;0.50;99.90
30300;DHT22;17110;52.602;12.998;2024-01-06T11:31:18;0.40;99.90
30300;DHT22;17110;52.602;12.998;2024-01-06T11:36:20;0.40;99.90
30300;DHT22;17110;52.602;12.998;2024-01-06T11:41:47;0.40;99.90
30300;DHT22;17110;52.602;12.998;2024-01-06T11:46:48;0.30;99.90
30300;DHT22;17110;52.602;12.998;2024-01-06T11:51:49;0.40;99.90
30300;DHT22;17110;52.602;12.998;2024-01-06T11:56:51;0.30;99.90
30300;DHT22;17110;52.602;12.998;2024-01-06T12:01:52;0.30;99.90
30300;DHT22;17110;52.602;12.998;2024-01-06T12:06:52;0.30;99.90
30300;DHT22;17110;52.602;12.998;2024-01-06T12:12:02;0.30;99.90
30300;DHT22;17110;52.602;12.998;2024-01-06T12:17:04;0.40;99.90
30300;DHT22;17110;52.602;12.998;2024-01-06T12:22:05;0.40;99.90
30300;DHT22;17110;52.602;12.998;2024-01-06T12:27:08;0.40;99.90
30300;DHT22;17110;52.602;12.998;2024-01-06T12:32:10;0.50;99.90
30300;DHT22;17110;52.602;12.998;2024-01-06T12:37:13;0.40;99.90
30300;DHT22;17110;52.602;12.998;2024-01-06T12:42:16;0.50;99.90
30300;DHT22;17110;52.602;12.998;2024-01-06T12:47:16;0.30;99.90
30300;DHT22;17110;52.602;12.998;2024-01-06T12:52:17;0.50;99.90
30300;DHT22;17110;52.602;12.998;2024-01-06T12:57:19;0.50;99.90
30300;DHT22;17110;52.602;12.998;2024-01-06T13:02:20;0.40;99.90
30300;DHT22;17110;52.602;12.998;2024-01-06T13:07:21;0.40;99.90
30300;DHT22;17110;52.602;12.998;2024-01-06T13:12:23;0.40;99.90
30300;DHT22;17110;52.602;12.998;2024-01-06T13:17:24;0.40;99.90
30300;DHT22;17110;52.602;12.998;2024-01-06T13:22:24;0.30;99.90
30300;DHT22;17110;52.602;12.998;2024-01-06T13:27:26;0.30;99.90
30300;DHT22;17110;52.602;12.998;2024-01-06T13:32:27;0.30;99.90
30300;DHT22;17110;52.602;12.998;2024-01-06T13:37:27;0.30;99.90
30300;DHT22;17110;52.602;12.998;2024-01-06T13:42:29;0.30;99.90
30300;DHT22;17110;52.602;12.998;2024-01-06T13:47:30;0.30;99.90
30300;DHT22;17110;52.602;12.998;2024-01-06T13:52:31;0.40;99.90
30300;DHT22;17110;52.602;12.998;2024-01-06T13:57:33;0.20;99.90
30300;DHT22;17110;52.602;12.998;2024-01-06T14:02:34;0.20;99.90
30300;DHT22;17110;52.602;12.998;2024-01-06T14:07:34;0.20;99.90
30300;DHT22;17110;52.602;12.998;2024-01-06T14:12:36;0.30;99.90
30300;DHT22;17110;52.602;12.998;2024-01-06T14:17:38;0.20;99.90
30300;DHT22;17110;52.602;12.998;2024-01-06T14:22:39;0.20;99.90
30300;DHT22;17110;52.602;12.998;2024-01-06T14:27:41;0.20;99.90
30300;DHT22;17110;52.602;12.998;2024-01-06T14:32:41;0.10;99.90
30300;DHT22;17110;52.602;12.998;2024-01-06T14:37:42;0.20;99.90
30300;DHT22;17110;52.602;12.998;2024-01-06T14:42:44;0.20;99.90
30300;DHT22;17110;52.602;12.998;2024-01-06T14:47:45;0.20;99.90
30300;DHT22;17110;52.602;12.998;2024-01-06T14:52:45;0.20;99.90
30300;DHT22;17110;52.602;12.998;2024-01-06T14:57:47;0.10;99.90
30300;DHT22;17110;52.602;12.998;2024-01-06T15:02:48;0.10;99.90
30300;DHT22;17110;52.602;12.998;2024-01-06T15:07:49;0.10;99.90
30300;DHT22;17110;52.602;12.998;2024-01-06T15:12:51;0.10;99.90
30300;DHT22;17110;52.602;12.998;2024-01-06T15:17:51;0.00;99.90
30300;DHT22;17110;52.602;12.998;2024-01-06T15:22:52;0.00;99.90
30300;DHT22;17110;52.602;12.998;2024-01-06T15:27:54;0.10;99.90
30300;DHT22;17110;52.602;12.998;2024-01-06T15:32:54;0.00;99.90
30300;DHT22;17110;52.602;12.998;2024-01-06T15:37:55;0.10;99.90
30300;DHT22;17110;52.602;12.998;2024-01-06T15:42:57;0.10;99.90
30300;DHT22;17110;52.602;12.998;2024-01-06T15:47:58;0.10;99.90
30300;DHT22;17110;52.602;12.998;2024-01-06T15:52:58;0.20;99.90
30300;DHT22;17110;52.602;12.998;2024-01-06T15:58:00;0.20;99.90
30300;DHT22;17110;52.602;12.998;2024-01-06T16:03:01;0.10;99.90
30300;DHT22;17110;52.602;12.998;2024-01-06T16:08:01;0.10;99.90
30300;DHT22;17110;52.602;12.998;2024-01-06T16:13:04;0.10;99.90
30300;DHT22;17110;52.602;12.998;2024-01-06T16:18:05;0.10;99.90
30300;DHT22;17110;52.602;12.998;2024-01-06T16:23:06;0.10;99.90
30300;DHT22;17110;52.602;12.998;2024-01-06T16:28:08;0.00;99.90
30300;DHT22;17110;52.602;12.998;2024-01-06T16:33:08;0.00;99.90
30300;DHT22;17110;52.602;12.998;2024-01-06T16:38:09;0.00;99.90
30300;DHT22;17110;52.602;12.998;2024-01-06T16:43:11;0.00;99.90
30300;DHT22;17110;52.602;12.998;2024-01-06T16:48:12;0.00;99.90
30300;DHT22;17110;52.602;12.998;2024-01-06T16:53:12;-0.10;99.90
30300;DHT22;17110;52.602;12.998;2024-01-06T16:58:14;0.00;99.90
30300;DHT22;17110;52.602;12.998;2024-01-06T17:03:15;-0.10;99.90
30300;DHT22;17110;52.602;12.998;2024-01-06T17:08:16;-0.10;99.90
30300;DHT22;17110;52.602;12.998;2024-01-06T17:13:18;-0.10;99.90
30300;DHT22;17110;52.602;12.998;2024-01-06T17:18:18;-0.20;99.90
30300;DHT22;17110;52.602;12.998;2024-01-06T17:23:19;-0.10;99.90
30300;DHT22;17110;52.602;12.998;2024-01-06T17:28:21;-0.10;99.90
30300;DHT22;17110;52.602;12.998;2024-01-06T17:33:21;-0.30;99.90
30300;DHT22;17110;52.602;12.998;2024-01-06T17:38:22;-0.30;99.90
30300;DHT22;17110;52.602;12.998;2024-01-06T17:43:24;-0.30;99.90
30300;DHT22;17110;52.602;12.998;2024-01-06T17:48:25;-0.20;99.90
30300;DHT22;17110;52.602;12.998;2024-01-06T17:53:25;-0.30;99.90
30300;DHT22;17110;52.602;12.998;2024-01-06T17:58:27;-0.30;99.90
30300;DHT22;17110;52.602;12.998;2024-01-06T18:03:28;-0.30;99.90
30300;DHT22;17110;52.602;12.998;2024-01-06T18:08:28;-0.30;99.90
30300;DHT22;17110;52.602;12.998;2024-01-06T18:13:30;-0.30;99.90
30300;DHT22;17110;52.602;12.998;2024-01-06T18:18:31;-0.30;99.90
30300;DHT22;17110;52.602;12.998;2024-01-06T18:23:32;-0.40;99.90
30300;DHT22;17110;52.602;12.998;2024-01-06T18:28:33;-0.50;99.90
30300;DHT22;17110;52.602;12.998;2024-01-06T18:33:34;-0.50;99.90
30300;DHT22;17110;52.602;12.998;2024-01-06T18:38:35;-0.50;99.90
30300;DHT22;17110;52.602;12.998;2024-01-06T18:43:37;-0.40;99.90
30300;DHT22;17110;52.602;12.998;2024-01-06T18:48:37;-0.50;99.90
30300;DHT22;17110;52.602;12.998;2024-01-06T18:53:39;-0.50;99.90
30300;DHT22;17110;52.602;12.998;2024-01-06T18:58:41;-0.50;99.90
30300;DHT22;17110;52.602;12.998;2024-01-06T19:03:42;-0.50;99.90
30300;DHT22;17110;52.602;12.998;2024-01-06T19:08:42;-0.60;99.90
30300;DHT22;17110;52.602;12.998;2024-01-06T19:13:44;-0.50;99.90
30300;DHT22;17110;52.602;12.998;2024-01-06T19:18:45;-0.40;99.90
30300;DHT22;17110;52.602;12.998;2024-01-06T19:23:46;-0.40;99.90
30300;DHT22;17110;52.602;12.998;2024-01-06T19:28:48;-0.40;99.90
30300;DHT22;17110;52.602;12.998;2024-01-06T19:33:48;-0.40;99.90
30300;DHT22;17110;52.602;12.998;2024-01-06T19:38:49;-0.40;99.90
30300;DHT22;17110;52.602;12.998;2024-01-06T19:43:51;-0.30;99.90
30300;DHT22;17110;52.602;12.998;2024-01-06T19:48:51;-0.40;99.90
30300;DHT22;17110;52.602;12.998;2024-01-06T19:53:52;-0.40;99.90
30300;DHT22;17110;52.602;12.998;2024-01-06T19:58:54;-0.50;99.90
30300;DHT22;17110;52.602;12.998;2024-01-06T20:03:55;-0.40;99.90
30300;DHT22;17110;52.602;12.998;2024-01-06T20:08:55;-0.40;99.90
30300;DHT22;17110;52.602;12.998;2024-01-06T20:13:57;-0.30;99.90
30300;DHT22;17110;52.602;12.998;2024-01-06T20:18:58;-0.40;99.90
30300;DHT22;17110;52.602;12.998;2024-01-06T20:23:58;-0.40;99.90
30300;DHT22;17110;52.602;12.998;2024-01-06T20:29:00;-0.50;99.90
30300;DHT22;17110;52.602;12.998;2024-01-06T20:34:01;-0.60;99.90
30300;DHT22;17110;52.602;12.998;2024-01-06T20:39:01;-0.50;99.90
30300;DHT22;17110;52.602;12.998;2024-01-06T20:44:05;-0.60;99.90
30300;DHT22;17110;52.602;12.998;2024-01-06T20:49:05;-0.60;99.90
30300;DHT22;17110;52.602;12.998;2024-01-06T20:54:06;-0.70;99.90
30300;DHT22;17110;52.602;12.998;2024-01-06T20:59:08;-0.70;99.90
30300;DHT22;17110;52.602;12.998;2024-01-06T21:04:09;-0.70;99.90
30300;DHT22;17110;52.602;12.998;2024-01-06T21:09:10;-0.70;99.90
30300;DHT22;17110;52.602;12.998;2024-01-06T21:14:12;-0.70;99.90
30300;DHT22;17110;52.602;12.998;2024-01-06T21:19:13;-0.70;99.90
30300;DHT22;17110;52.602;12.998;2024-01-06T21:24:14;-0.70;99.90
30300;DHT22;17110;52.602;12.998;2024-01-06T21:29:17;-0.80;99.90
30300;DHT22;17110;52.602;12.998;2024-01-06T21:34:17;-0.70;99.90
30300;DHT22;17110;52.602;12.998;2024-01-06T21:39:18;-0.70;99.90
30300;DHT22;17110;52.602;12.998;2024-01-06T21:44:20;-0.60;99.90
30300;DHT22;17110;52.602;12.998;2024-01-06T21:49:21;-0.60;99.90
30300;DHT22;17110;52.602;12.998;2024-01-06T21:54:21;-0.60;99.90
30300;DHT22;17110;52.602;12.998;2024-01-06T21:59:23;-0.70;99.90
30300;DHT22;17110;52.602;12.998;2024-01-06T22:04:24;-0.60;99.90
30300;DHT22;17110;52.602;12.998;2024-01-06T22:09:24;-0.60;99.90
30300;DHT22;17110;52.602;12.998;2024-01-06T22:14:26;-0.60;99.90
30300;DHT22;17110;52.602;12.998;2024-01-06T22:19:27;-0.60;99.90
30300;DHT22;17110;52.602;12.998;2024-01-06T22:24:28;-0.70;99.90
30300;DHT22;17110;52.602;12.998;2024-01-06T22:29:30;-0.60;99.90
30300;DHT22;17110;52.602;12.998;2024-01-06T22:34:30;-0.60;99.90
30300;DHT22;17110;52.602;12.998;2024-01-06T22:39:31;-0.60;99.90
30300;DHT22;17110;52.602;12.998;2024-01-06T22:44:33;-0.60;99.90
30300;DHT22;17110;52.602;12.998;2024-01-06T22:49:33;-0.70;99.90
30300;DHT22;17110;52.602;12.998;2024-01-06T22:54:34;-0.70;99.90
30300;DHT22;17110;52.602;12.998;2024-01-06T22:59:36;-0.70;99.90
30300;DHT22;17110;52.602;12.998;2024-01-06T23:04:37;-0.60;99.90
30300;DHT22;17110;52.602;12.998;2024-01-06T23:09:37;-0.70;99.90
30300;DHT22;17110;52.602;12.998;2024-01-06T23:14:39;-0.70;99.90
30300;DHT22;17110;52.602;12.998;2024-01-06T23:19:40;-0.80;99.90
30300;DHT22;17110;52.602;12.998;2024-01-06T23:24:40;-0.70;99.90
30300;DHT22;17110;52.602;12.998;2024-01-06T23:29:42;-0.70;99.90
30300;DHT22;17110;52.602;12.998;2024-01-06T23:34:43;-0.70;99.90
30300;DHT22;17110;52.602;12.998;2024-01-06T23:39:44;-0.70;99.90
30300;DHT22;17110;52.602;12.998;2024-01-06T23:44:45;-0.70;99.90
30300;DHT22;17110;52.602;12.998;2024-01-06T23:49:46;-0.80;99.90
30300;DHT22;17110;52.602;12.998;2024-01-06T23:54:47;-0.80;99.90
30300;DHT22;17110;52.602;12.998;2024-01-06T23:59:49;-0.90;99.90
